Time;durP1;ratioP1;P1;durP2;ratioP2;P2;SDS_P1;SDS_P2;PMS_P1;PMS_P2;Temp;Humidity;BMP_temperature;BMP_pressure;BME280_temperature;BME280_humidity;BME280_pressure;Samples;Min_cycle;Max_cycle;Signal;HPM_P1;HPM_P2
2021/04/11 00:24:58;;;;;;;16.00;9.80;;;;;;;4.98;79.71;100670.31;5022135;28;20463;-77
2021/04/11 00:27:23;;;;;;;15.70;9.60;;;;;;;5.15;80.72;100665.66;5034670;28;20489;-77
2021/04/11 00:29:49;;;;;;;11.30;9.87;;;;;;;5.09;80.94;100654.25;5022685;28;20221;-78
2021/04/11 00:32:14;;;;;;;13.30;10.70;;;;;;;5.09;80.34;100657.72;5022058;28;20186;-77
2021/04/11 00:34:39;;;;;;;14.77;10.57;;;;;;;5.37;79.75;100651.69;5022176;28;20202;-80
2021/04/11 00:37:05;;;;;;;18.13;12.10;;;;;;;5.73;79.67;100639.75;5006214;28;20202;-79
2021/04/11 00:39:30;;;;;;;15.20;11.03;;;;;;;6.29;76.34;100634.38;5021280;28;20226;-80
2021/04/11 00:41:58;;;;;;;18.63;15.23;;;;;;;5.55;80.04;100625.47;5004890;28;20179;-79
2021/04/11 00:44:24;;;;;;;16.17;13.10;;;;;;;5.92;78.62;100627.31;5021872;28;20159;-77
2021/04/11 00:46:55;;;;;;;16.30;12.60;;;;;;;5.31;79.91;100635.13;5021755;28;20845;-78
2021/04/11 00:49:28;;;;;;;20.03;14.10;;;;;;;6.60;77.19;100613.53;5021507;28;20204;-77
2021/04/11 00:51:54;;;;;;;15.30;12.33;;;;;;;5.89;78.72;100600.53;5021080;28;20506;-79
2021/04/11 00:54:19;;;;;;;19.03;14.00;;;;;;;5.70;80.05;100599.16;5004735;28;20552;-78
2021/04/11 00:56:45;;;;;;;16.60;13.43;;;;;;;5.79;79.65;100590.78;5021290;28;20195;-76
2021/04/11 00:59:11;;;;;;;16.40;12.83;;;;;;;5.64;80.39;100582.59;5020930;28;20171;-76
2021/04/11 01:01:37;;;;;;;17.13;14.90;;;;;;;6.37;78.30;100583.66;5021474;28;20171;-77
2021/04/11 01:04:05;;;;;;;21.50;14.67;;;;;;;6.18;78.45;100579.75;5022061;28;20422;-77
2021/04/11 01:06:35;;;;;;;19.83;14.63;;;;;;;6.42;79.04;100568.22;5021693;28;20414;-77
2021/04/11 01:09:01;;;;;;;20.20;15.20;;;;;;;6.10;79.09;100565.72;5020981;28;20417;-78
2021/04/11 01:11:32;;;;;;;23.77;16.40;;;;;;;6.26;78.36;100563.50;5003978;28;20996;-76
2021/04/11 01:14:03;;;;;;;23.00;15.77;;;;;;;6.00;80.02;100543.91;5021178;28;20496;-77
2021/04/11 01:16:28;;;;;;;23.90;17.17;;;;;;;6.09;79.97;100542.38;5021407;28;20422;-78
2021/04/11 01:18:54;;;;;;;26.23;16.10;;;;;;;5.87;81.17;100536.63;5020683;28;20437;-78
2021/04/11 01:21:37;;;;;;;24.63;18.30;;;;;;;6.57;78.73;100516.75;5021340;28;20171;-77
2021/04/11 01:24:16;;;;;;;24.60;17.50;;;;;;;6.68;78.16;100514.41;5009826;28;20229;-77
2021/04/11 01:26:42;;;;;;;28.80;19.73;;;;;;;6.95;77.11;100512.38;5020021;28;20434;-77
2021/04/11 01:29:08;;;;;;;27.80;17.40;;;;;;;6.05;80.62;100519.03;5020411;28;20659;-78
2021/04/11 01:31:34;;;;;;;26.93;18.60;;;;;;;6.56;78.23;100503.78;5020286;28;20425;-77
2021/04/11 01:33:59;;;;;;;26.80;19.43;;;;;;;6.63;79.31;100505.69;5021607;28;20524;-77
2021/04/11 01:36:27;;;;;;;26.43;20.47;;;;;;;6.57;78.58;100510.72;5019913;28;20193;-79
2021/04/11 01:38:53;;;;;;;26.77;19.90;;;;;;;6.24;80.62;100504.81;5020280;28;20171;-77
2021/04/11 01:41:25;;;;;;;26.10;19.10;;;;;;;6.54;79.95;100495.13;5020406;28;20402;-79
2021/04/11 01:43:51;;;;;;;27.53;20.30;;;;;;;7.32;77.47;100482.88;5020130;28;20449;-77
2021/04/11 01:46:16;;;;;;;29.00;20.90;;;;;;;7.18;78.11;100482.59;5003373;28;20429;-79
2021/04/11 01:48:43;;;;;;;27.23;21.43;;;;;;;7.21;77.22;100494.75;5020615;28;20647;-79
2021/04/11 01:51:10;;;;;;;26.50;20.97;;;;;;;6.58;80.03;100492.63;5020545;28;20175;-79
2021/04/11 01:53:35;;;;;;;26.87;20.27;;;;;;;6.96;79.21;100485.63;5019786;28;20446;-78
2021/04/11 01:56:01;;;;;;;27.63;20.13;;;;;;;7.30;77.55;100484.56;5020794;28;20707;-79
2021/04/11 01:58:27;;;;;;;27.30;21.50;;;;;;;6.95;77.89;100479.56;5020763;28;20175;-79
2021/04/11 02:01:07;;;;;;;28.10;21.97;;;;;;;7.17;78.56;100475.69;5019754;28;20482;-78
2021/04/11 02:03:32;;;;;;;28.73;20.93;;;;;;;7.32;nan;100462.13;5020409;28;20689;-79
2021/04/11 02:06:02;;;;;;;27.20;21.20;;;;;;;7.52;77.14;100477.16;5019787;28;20420;-80
2021/04/11 02:08:29;;;;;;;28.07;19.87;;;;;;;7.50;77.85;100460.72;5020571;28;20163;-78
2021/04/11 02:10:55;;;;;;;24.63;20.53;;;;;;;7.45;76.97;100458.03;5019520;28;20457;-80
2021/04/11 02:13:28;;;;;;;23.57;19.03;;;;;;;7.16;77.18;100460.97;5019426;28;20434;-77
2021/04/11 02:15:57;;;;;;;25.33;19.70;;;;;;;7.35;77.79;100458.72;5020679;28;20432;-77
2021/04/11 02:18:23;;;;;;;24.37;19.50;;;;;;;7.63;76.45;100457.50;5019464;28;20438;-78
2021/04/11 02:20:50;;;;;;;23.43;17.00;;;;;;;6.77;78.42;100455.88;5019934;28;20471;-79
2021/04/11 02:23:15;;;;;;;23.63;19.20;;;;;;;7.19;78.19;100444.59;5025586;28;20476;-79
2021/04/11 02:25:44;;;;;;;29.53;21.60;;;;;;;7.69;76.88;100442.03;5026264;28;20418;-79
2021/04/11 02:28:11;;;;;;;25.77;20.40;;;;;;;7.37;77.78;100438.88;5003043;28;20175;-78
2021/04/11 02:30:43;;;;;;;25.57;20.07;;;;;;;7.28;78.38;100447.38;5019302;28;20426;-77
2021/04/11 02:33:08;;;;;;;25.80;19.17;;;;;;;6.82;80.18;100449.06;5019811;28;20437;-77
2021/04/11 02:35:33;;;;;;;25.87;19.77;;;;;;;6.85;79.98;100436.19;5019786;28;20415;-78
2021/04/11 02:38:00;;;;;;;26.77;20.60;;;;;;;7.05;80.70;100427.06;5019263;28;20525;-75
2021/04/11 02:40:29;;;;;;;27.70;19.73;;;;;;;6.83;81.57;100424.91;5019445;28;20228;-76
2021/04/11 02:42:59;;;;;;;24.50;21.17;;;;;;;6.90;80.94;100409.50;5019701;28;20406;-77
2021/04/11 02:45:28;;;;;;;27.67;21.17;;;;;;;6.91;81.58;100420.75;5002485;28;20425;-77
2021/04/11 02:47:54;;;;;;;33.80;22.13;;;;;;;7.23;81.03;100413.56;5002587;28;20425;-77
2021/04/11 02:50:21;;;;;;;28.80;22.00;;;;;;;7.30;80.66;100406.78;5002266;28;20425;-76
2021/04/11 02:52:55;;;;;;;31.97;22.27;;;;;;;7.24;80.42;100404.94;5002509;28;20709;-75
2021/04/11 02:55:21;;;;;;;32.40;23.40;;;;;;;7.45;79.86;100402.72;5019359;28;20456;-76
2021/04/11 02:57:47;;;;;;;31.30;23.27;;;;;;;7.27;80.32;100395.50;5018764;28;20512;-75
2021/04/11 03:00:18;;;;;;;30.47;23.87;;;;;;;7.40;80.09;100400.91;5018189;28;20497;-76
2021/04/11 03:02:46;;;;;;;31.10;24.23;;;;;;;7.68;79.56;100390.97;5018980;28;20274;-76
2021/04/11 03:05:18;;;;;;;33.23;24.50;;;;;;;7.80;79.00;100384.25;5019267;28;20422;-74
2021/04/11 03:07:45;;;;;;;31.63;26.37;;;;;;;7.84;78.30;100389.50;5002188;28;20453;-76
2021/04/11 03:10:17;;;;;;;32.30;25.07;;;;;;;7.69;79.42;100381.47;5017939;28;20424;-75
2021/04/11 03:12:42;;;;;;;34.10;26.47;;;;;;;7.48;78.50;100384.59;5001894;28;20885;-76
2021/04/11 03:15:09;;;;;;;36.47;27.93;;;;;;;7.44;79.65;100382.78;5019544;28;20520;-75
2021/04/11 03:17:34;;;;;;;36.57;27.53;;;;;;;8.02;77.66;100372.44;5018293;28;20179;-77
2021/04/11 03:20:18;;;;;;;36.43;25.97;;;;;;;7.67;78.35;100373.69;5001273;28;20456;-77
2021/04/11 03:22:44;;;;;;;34.67;27.90;;;;;;;7.97;78.36;100368.91;5001921;28;20270;-76
2021/04/11 03:25:12;;;;;;;35.10;26.77;;;;;;;7.45;79.45;100392.34;5018052;28;20533;-78
2021/04/11 03:27:52;;;;;;;35.17;26.60;;;;;;;8.28;77.73;100367.63;5018544;28;20536;-77
2021/04/11 03:30:25;;;;;;;37.57;26.77;;;;;;;7.07;80.91;100378.72;5018022;28;20519;-77
2021/04/11 03:32:52;;;;;;;39.60;28.20;;;;;;;7.54;79.90;100364.81;5018411;28;20458;-78
2021/04/11 03:35:20;;;;;;;39.00;27.70;;;;;;;7.58;80.31;100369.19;5018755;28;20468;-77
2021/04/11 03:37:46;;;;;;;35.87;25.40;;;;;;;7.69;80.08;100358.13;5018665;28;20800;-77
2021/04/11 03:40:15;;;;;;;36.17;29.00;;;;;;;7.67;80.10;100363.31;5018633;28;20496;-76
2021/04/11 03:42:44;;;;;;;39.50;27.93;;;;;;;7.54;80.26;100366.53;4999021;28;20419;-76
2021/04/11 03:45:10;;;;;;;38.03;29.23;;;;;;;7.50;80.02;100364.75;4982133;28;20421;-76
2021/04/11 03:47:40;;;;;;;40.23;30.17;;;;;;;7.52;80.92;100350.06;4998784;28;20506;-76
2021/04/11 03:50:10;;;;;;;39.13;28.90;;;;;;;8.04;78.50;100340.47;4981798;28;20186;-76
2021/04/11 03:53:09;;;;;;;38.20;29.27;;;;;;;8.18;78.51;100343.22;5001166;28;20456;-76
2021/04/11 03:55:38;;;;;;;39.60;30.63;;;;;;;8.30;77.54;100345.13;5017834;28;20465;-76
2021/04/11 03:58:11;;;;;;;36.97;28.93;;;;;;;7.87;79.50;100334.16;5018582;28;20441;-75
2021/04/11 04:00:42;;;;;;;38.60;30.23;;;;;;;7.74;80.40;100330.53;5017310;28;20842;-75
2021/04/11 04:03:12;;;;;;;39.63;28.70;;;;;;;7.63;80.53;100332.06;5017812;28;20422;-75
2021/04/11 04:05:38;;;;;;;38.13;30.00;;;;;;;7.73;80.42;100321.84;5001374;28;20421;-74
2021/04/11 04:08:04;;;;;;;38.33;29.87;;;;;;;7.68;80.73;100328.69;5017849;28;20496;-76
2021/04/11 04:10:41;;;;;;;36.10;29.00;;;;;;;8.03;79.66;100324.88;5018041;28;20453;-75
2021/04/11 04:13:07;;;;;;;37.60;28.67;;;;;;;7.91;79.82;100323.88;5017652;28;20481;-76
2021/04/11 04:15:54;;;;;;;41.10;31.83;;;;;;;7.58;80.97;100330.28;5017763;28;20492;-76
2021/04/11 04:18:32;;;;;;;37.40;30.60;;;;;;;8.09;79.69;100322.34;5017678;28;20438;-75
2021/04/11 04:21:02;;;;;;;38.27;30.37;;;;;;;8.25;78.74;100310.44;5023806;28;20429;-75
2021/04/11 04:23:46;;;;;;;45.03;33.00;;;;;;;7.78;80.11;100323.66;5019300;28;20489;-75
2021/04/11 04:26:19;;;;;;;36.63;29.60;;;;;;;7.98;79.58;100310.94;5018197;28;20418;-76
2021/04/11 04:28:55;;;;;;;38.67;31.13;;;;;;;8.11;79.24;100330.16;5018283;28;20387;-76
2021/04/11 04:31:24;;;;;;;42.30;32.83;;;;;;;8.18;79.43;100326.78;5017086;28;20449;-75
2021/04/11 04:33:54;;;;;;;40.20;31.83;;;;;;;8.18;78.63;100326.78;5017314;28;20485;-75
2021/04/11 04:36:35;;;;;;;41.23;31.17;;;;;;;7.97;79.77;100323.06;5001087;28;20535;-75
2021/04/11 04:39:20;;;;;;;41.73;31.63;;;;;;;8.37;78.43;100326.16;5017373;28;20475;-75
2021/04/11 04:42:18;;;;;;;40.60;31.77;;;;;;;8.43;78.80;100313.25;5000061;28;20449;-75
2021/04/11 04:45:06;;;;;;;40.47;30.07;;;;;;;8.17;79.50;100312.06;5000973;28;20406;-75
2021/04/11 04:47:43;;;;;;;41.20;31.43;;;;;;;8.15;78.68;100308.59;5018058;28;20424;-75
2021/04/11 04:50:19;;;;;;;42.80;34.20;;;;;;;8.49;78.69;100311.63;5017937;28;20512;-75
2021/04/11 04:53:12;;;;;;;43.17;31.93;;;;;;;8.56;78.72;100306.47;5000695;28;20433;-74
2021/04/11 04:55:40;;;;;;;46.13;32.70;;;;;;;8.36;78.55;100301.06;5017218;28;20521;-76
2021/04/11 04:58:15;;;;;;;44.93;34.20;;;;;;;8.35;79.08;100298.41;5000865;28;20418;-74
2021/04/11 05:00:53;;;;;;;43.43;32.17;;;;;;;8.30;78.38;100303.56;5017474;28;20403;-76
2021/04/11 05:03:27;;;;;;;42.03;32.27;;;;;;;8.46;78.52;100301.16;5021007;28;20501;-76
2021/04/11 05:06:09;;;;;;;44.73;33.80;;;;;;;8.30;79.12;100306.16;5004445;28;20418;-76
2021/04/11 05:08:42;;;;;;;43.30;33.73;;;;;;;8.56;78.42;100309.06;5020999;28;20447;-76
2021/04/11 05:11:26;;;;;;;44.67;33.40;;;;;;;7.82;80.25;100308.16;5020171;28;20434;-75
2021/04/11 05:13:54;;;;;;;42.90;32.03;;;;;;;8.22;80.03;100300.00;5004271;28;20511;-75
2021/04/11 05:16:26;;;;;;;42.10;33.07;;;;;;;8.14;80.14;100299.03;5004143;28;20422;-76
2021/04/11 05:18:58;;;;;;;41.33;34.40;;;;;;;8.41;79.23;100294.16;5004284;28;20518;-76
2021/04/11 05:21:30;;;;;;;43.50;34.30;;;;;;;8.55;78.40;100289.16;5003926;28;20571;-75
2021/04/11 05:24:05;;;;;;;39.53;32.50;;;;;;;8.65;78.51;100297.94;5020568;28;20893;-75
2021/04/11 05:26:37;;;;;;;43.20;34.13;;;;;;;8.53;78.99;100284.81;4999810;28;20431;-76
2021/04/11 05:29:07;;;;;;;42.93;33.17;;;;;;;8.49;78.78;100283.03;4984539;28;20468;-76
2021/04/11 05:31:37;;;;;;;45.70;33.00;;;;;;;8.37;79.66;100284.59;5003419;28;20760;-74
2021/04/11 05:34:05;;;;;;;45.50;34.87;;;;;;;8.24;79.05;100277.50;5003891;28;20548;-76
2021/04/11 05:36:54;;;;;;;44.53;33.50;;;;;;;8.63;78.36;100284.03;5019812;28;20437;-74
2021/04/11 05:39:45;;;;;;;47.43;34.60;;;;;;;8.26;80.08;100279.28;5020199;28;20508;-75
2021/04/11 05:42:17;;;;;;;44.60;34.93;;;;;;;8.46;79.36;100270.88;5020946;28;20424;-75
2021/04/11 05:44:48;;;;;;;40.60;32.03;;;;;;;8.18;79.69;100275.72;5020569;28;20444;-75
2021/04/11 05:47:19;;;;;;;42.93;33.83;;;;;;;8.47;78.92;100275.22;5020044;28;20505;-75
2021/04/11 05:49:49;;;;;;;47.60;34.87;;;;;;;8.46;79.05;100270.88;5020538;28;20449;-75
2021/04/11 05:52:19;;;;;;;45.73;36.00;;;;;;;8.64;78.41;100262.41;5019953;28;20453;-75
2021/04/11 05:54:50;;;;;;;45.07;36.40;;;;;;;8.88;77.73;100268.69;5003627;28;20461;-75
2021/04/11 05:57:17;;;;;;;47.67;36.70;;;;;;;8.71;78.86;100266.81;5019362;28;20404;-75
2021/04/11 06:00:00;;;;;;;45.13;36.43;;;;;;;8.71;78.35;100263.31;5019545;28;20782;-76
2021/04/11 06:02:37;;;;;;;47.00;36.07;;;;;;;8.89;77.91;100267.81;5003332;28;20426;-74
2021/04/11 06:05:24;;;;;;;47.13;36.97;;;;;;;8.96;78.29;100267.03;5019664;28;20424;-75
2021/04/11 06:08:00;;;;;;;45.90;36.13;;;;;;;9.03;77.70;100261.00;5019716;28;20453;-76
2021/04/11 06:10:36;;;;;;;46.63;36.93;;;;;;;8.66;77.50;100265.91;5019616;28;20414;-75
2021/04/11 06:13:08;;;;;;;48.80;38.67;;;;;;;9.05;77.69;100261.91;5018541;28;20414;-75
2021/04/11 06:15:36;;;;;;;46.03;35.90;;;;;;;9.35;76.24;100250.00;5019685;28;20544;-73
2021/04/11 06:18:06;;;;;;;47.67;37.27;;;;;;;8.90;78.13;100267.84;5007371;28;20862;-73
2021/04/11 06:20:32;;;;;;;46.83;36.23;;;;;;;9.22;76.81;100263.75;5020115;28;20410;-72
2021/04/11 06:23:17;;;;;;;49.03;36.90;;;;;;;8.92;78.53;100260.06;5020389;28;20414;-73
2021/04/11 06:25:48;;;;;;;50.33;36.23;;;;;;;8.79;78.18;100260.81;5019881;28;20427;-75
2021/04/11 06:28:27;;;;;;;46.03;35.70;;;;;;;9.37;76.67;100258.66;5002926;28;20446;-75
2021/04/11 06:30:58;;;;;;;50.20;40.57;;;;;;;9.53;76.06;100258.78;5018173;28;20465;-76
2021/04/11 06:33:29;;;;;;;46.43;37.23;;;;;;;8.95;77.57;100267.03;5002394;28;20462;-76
2021/04/11 06:36:00;;;;;;;51.20;36.20;;;;;;;9.28;77.17;100258.59;5019400;28;20831;-75
2021/04/11 06:38:48;;;;;;;46.73;36.40;;;;;;;9.52;75.42;100255.28;5002789;28;20529;-76
2021/04/11 06:41:58;;;;;;;47.30;36.30;;;;;;;9.40;75.52;100269.09;5018779;28;20492;-76
2021/04/11 06:44:54;;;;;;;45.97;35.23;;;;;;;9.52;77.01;100259.63;5019750;28;20500;-74
2021/04/11 06:47:47;;;;;;;47.77;36.80;;;;;;;9.36;77.30;100259.53;5019155;28;21195;-75
2021/04/11 06:50:29;;;;;;;43.43;35.83;;;;;;;9.38;77.06;100265.59;5019740;28;20421;-76
2021/04/11 06:53:07;;;;;;;46.33;36.10;;;;;;;9.47;75.86;100264.81;5019551;28;20414;-75
2021/04/11 06:55:32;;;;;;;48.97;38.33;;;;;;;9.59;75.91;100259.69;5018610;28;20487;-76
2021/04/11 06:58:06;;;;;;;44.47;36.20;;;;;;;9.49;76.68;100265.69;5019392;28;20421;-75
2021/04/11 07:00:43;;;;;;;45.87;36.43;;;;;;;9.49;77.25;100265.69;5019292;28;20185;-76
2021/04/11 07:03:53;;;;;;;44.47;35.40;;;;;;;9.85;75.19;100265.88;5018199;28;20417;-75
2021/04/11 07:06:59;;;;;;;42.20;34.50;;;;;;;9.31;76.77;100271.63;5018598;28;20421;-75
2021/04/11 07:09:36;;;;;;;41.60;32.07;;;;;;;9.37;77.54;100268.22;4993781;28;20437;-75
2021/04/11 07:12:29;;;;;;;40.40;33.53;;;;;;;10.08;74.88;100261.66;5002042;28;20414;-76
2021/04/11 07:15:16;;;;;;;44.90;34.67;;;;;;;9.69;76.02;100259.75;5019097;28;20466;-75
2021/04/11 07:18:04;;;;;;;42.00;32.97;;;;;;;9.73;76.44;100254.53;5019216;28;20455;-76
2021/04/11 07:20:48;;;;;;;40.20;32.83;;;;;;;10.15;75.30;100259.06;5001290;28;20407;-74
2021/04/11 07:23:28;;;;;;;36.93;31.37;;;;;;;9.93;75.84;100252.03;5018780;28;20413;-74
2021/04/11 07:26:03;;;;;;;40.53;33.20;;;;;;;9.80;76.38;100250.25;5018617;28;20725;-76
2021/04/11 07:28:39;;;;;;;39.57;33.20;;;;;;;9.77;76.05;100256.31;5002000;28;20414;-75
2021/04/11 07:31:35;;;;;;;38.87;33.63;;;;;;;10.08;75.45;100256.44;5018138;28;20824;-76
2021/04/11 07:34:25;;;;;;;39.43;31.40;;;;;;;10.08;75.43;100253.84;5017460;28;20694;-76
2021/04/11 07:37:12;;;;;;;38.47;32.87;;;;;;;9.95;75.83;100255.50;4999230;28;20473;-75
2021/04/11 07:40:07;;;;;;;39.60;33.23;;;;;;;9.80;76.99;100258.06;4998500;28;20403;-74
2021/04/11 07:43:02;;;;;;;39.73;32.50;;;;;;;10.24;75.82;100253.88;4998218;28;20686;-76
2021/04/11 07:46:02;;;;;;;38.70;32.20;;;;;;;10.14;75.58;100262.53;4999112;28;20481;-82
2021/04/11 07:48:33;;;;;;;41.13;32.53;;;;;;;10.17;75.56;100253.00;5003726;28;20425;-75
2021/04/11 07:51:36;;;;;;;40.87;33.60;;;;;;;10.09;76.52;100263.41;5018575;28;20437;-72
2021/04/11 07:54:26;;;;;;;41.40;32.93;;;;;;;10.40;75.36;100260.03;5018367;28;20544;-73
2021/04/11 07:57:20;;;;;;;39.57;32.30;;;;;;;9.90;76.75;100264.16;5018596;28;20452;-73
2021/04/11 08:00:24;;;;;;;36.30;31.97;;;;;;;10.35;75.54;100266.97;5018313;28;20410;-72
2021/04/11 08:03:15;;;;;;;40.00;33.63;;;;;;;10.54;75.20;100262.66;5017866;28;20500;-72
2021/04/11 08:06:06;;;;;;;37.07;32.07;;;;;;;10.10;76.81;100272.94;5011187;28;20572;-71
2021/04/11 08:08:46;;;;;;;37.77;31.63;;;;;;;10.10;77.19;100282.50;5018074;28;20489;-72
2021/04/11 08:11:47;;;;;;;36.77;30.67;;;;;;;10.17;76.77;100284.25;5018144;28;20673;-73
2021/04/11 08:14:38;;;;;;;36.47;31.37;;;;;;;11.03;74.30;100272.31;5001645;28;20465;-72
2021/04/11 08:17:38;;;;;;;39.20;33.20;;;;;;;10.93;73.93;100280.13;5019936;28;20449;-72
2021/04/11 08:20:20;;;;;;;35.23;31.30;;;;;;;10.54;74.67;100281.81;5017815;28;20487;-71
2021/04/11 08:22:58;;;;;;;35.20;30.03;;;;;;;11.80;71.67;100269.59;5017289;28;20687;-71
2021/04/11 08:25:32;;;;;;;35.00;31.10;;;;;;;11.16;73.53;100267.94;5018175;28;20479;-71
2021/04/11 08:28:18;;;;;;;34.13;28.63;;;;;;;11.86;71.98;100266.94;5018025;28;20422;-71
2021/04/11 08:30:46;;;;;;;32.53;29.07;;;;;;;11.75;72.62;100274.81;5018031;28;20504;-71
2021/04/11 08:33:49;;;;;;;33.10;29.60;;;;;;;11.44;73.45;100276.63;5017512;28;20429;-71
2021/04/11 08:36:34;;;;;;;32.53;29.03;;;;;;;11.71;73.00;100280.06;5018907;28;20483;-72
2021/04/11 08:39:30;;;;;;;29.60;26.50;;;;;;;12.19;70.88;100269.47;5021095;28;20675;-70
2021/04/11 08:42:21;;;;;;;29.40;26.27;;;;;;;12.27;70.90;100270.28;5021805;28;20428;-72
2021/04/11 08:45:08;;;;;;;27.83;24.93;;;;;;;12.41;71.59;100270.25;5021079;28;20420;-71
2021/04/11 08:47:40;;;;;;;23.43;21.07;;;;;;;14.86;62.76;100264.22;5021867;28;20418;-71
2021/04/11 08:50:15;;;;;;;19.63;17.73;;;;;;;15.39;62.75;100256.31;5020985;28;20445;-71
2021/04/11 08:53:02;;;;;;;17.90;16.07;;;;;;;15.70;59.92;100260.16;5021497;28;20402;-71
2021/04/11 08:55:33;;;;;;;16.33;14.93;;;;;;;14.89;61.92;100264.16;5021519;28;20497;-72
2021/04/11 08:58:07;;;;;;;14.63;13.33;;;;;;;14.16;63.53;100266.94;5004583;28;20443;-73
2021/04/11 09:00:49;;;;;;;13.77;12.47;;;;;;;14.89;62.34;100258.91;5020588;28;20472;-73
2021/04/11 09:03:46;;;;;;;14.23;12.90;;;;;;;14.92;62.30;100268.50;5021089;28;20425;-71
2021/04/11 09:06:30;;;;;;;14.33;13.13;;;;;;;14.46;63.21;100273.53;5020686;28;20500;-72
2021/04/11 09:09:15;;;;;;;14.70;13.20;;;;;;;14.31;63.76;100272.00;5021528;28;20406;-71
2021/04/11 09:12:20;;;;;;;14.27;12.87;;;;;;;13.72;64.36;100266.59;5004167;28;20417;-71
2021/04/11 09:15:01;;;;;;;12.87;11.67;;;;;;;13.10;66.22;100285.44;5020614;28;20727;-71
2021/04/11 09:17:35;;;;;;;11.67;10.67;;;;;;;13.23;64.72;100283.63;5020779;28;20480;-71
2021/04/11 09:20:17;;;;;;;12.40;11.30;;;;;;;13.42;65.02;100273.88;5020498;28;20632;-70
2021/04/11 09:23:03;;;;;;;13.30;12.00;;;;;;;13.84;64.18;100281.28;5021119;28;20406;-72
2021/04/11 09:25:36;;;;;;;12.03;10.93;;;;;;;13.62;64.02;100288.50;5000806;28;20481;-70
2021/04/11 09:28:17;;;;;;;12.13;11.00;;;;;;;13.39;65.07;100302.69;5000688;28;20393;-71
2021/04/11 09:31:00;;;;;;;11.90;10.70;;;;;;;12.85;66.10;100297.84;5001325;28;20416;-73
2021/04/11 09:33:53;;;;;;;11.20;10.20;;;;;;;13.30;65.03;100300.09;5000451;28;20409;-75
2021/04/11 09:36:37;;;;;;;11.27;10.27;;;;;;;13.55;64.42;100289.47;5001248;28;20425;-75
2021/04/11 09:39:10;;;;;;;12.20;11.10;;;;;;;13.44;64.48;100292.19;5001120;28;20477;-74
2021/04/11 09:41:46;;;;;;;11.17;10.17;;;;;;;13.41;64.71;100284.34;5001178;28;20431;-73
2021/04/11 09:44:37;;;;;;;10.90;9.90;;;;;;;13.13;65.72;100292.41;5001043;28;20483;-74
2021/04/11 09:47:11;;;;;;;12.20;11.03;;;;;;;13.27;64.82;100294.91;4999807;28;20431;-74
2021/04/11 09:49:55;;;;;;;10.00;9.10;;;;;;;12.65;66.37;100305.84;5001061;28;20433;-74
2021/04/11 09:52:58;;;;;;;10.90;9.90;;;;;;;12.68;66.21;100300.59;4983989;28;20851;-75
2021/04/11 09:55:27;;;;;;;10.60;9.57;;;;;;;12.44;67.90;100318.13;5000689;28;20441;-74
2021/04/11 09:58:20;;;;;;;12.17;11.07;;;;;;;11.82;69.94;100320.06;4983977;28;20389;-74
2021/04/11 10:01:12;;;;;;;13.87;12.47;;;;;;;11.45;71.57;100334.03;5000627;28;20414;-74
2021/04/11 10:03:56;;;;;;;16.17;14.57;;;;;;;12.54;68.26;100336.38;5000291;28;20481;-73
2021/04/11 10:06:46;;;;;;;17.97;16.27;;;;;;;12.12;68.47;100334.84;4984191;28;20857;-72
2021/04/11 10:09:41;;;;;;;17.97;16.17;;;;;;;12.60;66.46;100331.16;5001071;28;20394;-75
2021/04/11 10:12:11;;;;;;;16.87;15.40;;;;;;;13.22;64.62;100339.47;4995806;28;20738;-71
2021/04/11 10:14:52;;;;;;;16.37;14.90;;;;;;;13.06;64.33;100348.31;4981857;28;20459;-72
2021/04/11 10:17:35;;;;;;;15.57;14.17;;;;;;;11.76;67.36;100365.34;4980467;28;20714;-72
2021/04/11 10:20:22;;;;;;;16.27;14.77;;;;;;;11.82;67.55;100371.44;4998850;28;20489;-71
2021/04/11 10:22:58;;;;;;;14.97;13.57;;;;;;;12.52;64.87;100364.31;4983637;28;20831;-72
2021/04/11 10:25:40;;;;;;;13.57;12.30;;;;;;;13.89;61.51;100358.09;4999716;28;20461;-73
2021/04/11 10:28:21;;;;;;;12.10;11.07;;;;;;;13.40;61.63;100366.41;4983434;28;20417;-72
2021/04/11 10:30:56;;;;;;;11.90;10.90;;;;;;;12.76;62.54;100369.41;5000250;28;20480;-76
2021/04/11 10:33:47;;;;;;;10.67;9.80;;;;;;;12.07;64.00;100369.66;5001892;28;20665;-75
2021/04/11 10:36:42;;;;;;;10.87;9.87;;;;;;;11.69;66.05;100373.19;5002227;28;20485;-74
2021/04/11 10:39:14;;;;;;;10.00;9.13;;;;;;;11.25;66.90;100377.53;4996173;28;20429;-71
2021/04/11 10:41:50;;;;;;;14.13;12.57;;;;;;;11.28;67.47;100383.66;4999955;28;20429;-71
2021/04/11 10:44:33;;;;;;;9.93;9.10;;;;;;;11.06;67.29;100397.53;4999430;28;20415;-70
2021/04/11 10:47:38;;;;;;;10.83;9.83;;;;;;;11.17;67.09;100395.78;4998803;28;20446;-72
2021/04/11 10:50:10;;;;;;;11.53;10.43;;;;;;;10.58;68.51;100407.78;4968244;28;20437;-71
2021/04/11 10:52:44;;;;;;;12.07;10.87;;;;;;;10.46;68.50;100416.44;4999168;28;20688;-74
2021/04/11 10:55:18;;;;;;;13.27;11.97;;;;;;;10.66;67.76;100419.09;4999551;28;20857;-72
2021/04/11 10:58:02;;;;;;;15.00;13.43;;;;;;;10.02;69.17;100436.09;4999615;28;20414;-72
2021/04/11 11:00:55;;;;;;;14.33;13.00;;;;;;;10.16;68.95;100433.63;4998912;28;20377;-72
2021/04/11 11:03:29;;;;;;;14.43;12.93;;;;;;;9.76;69.34;100434.16;4998630;28;20434;-73
2021/04/11 11:06:22;;;;;;;16.10;14.50;;;;;;;9.74;69.02;100435.03;4999482;28;20485;-73
2021/04/11 11:09:08;;;;;;;15.97;14.30;;;;;;;9.51;69.21;100437.44;4998743;28;20402;-73
2021/04/11 11:11:36;;;;;;;15.07;13.53;;;;;;;9.70;69.05;100449.75;4999236;28;20423;-73
2021/04/11 11:14:26;;;;;;;15.13;13.50;;;;;;;9.49;69.45;100447.81;4979924;28;20467;-72
2021/04/11 11:17:09;;;;;;;14.43;12.97;;;;;;;9.30;69.34;100456.31;4979881;28;20422;-72
2021/04/11 11:19:51;;;;;;;14.43;13.03;;;;;;;9.22;69.52;100461.44;4983218;28;20477;-74
2021/04/11 11:22:43;;;;;;;13.63;12.23;;;;;;;9.28;68.94;100456.28;4982332;28;20439;-66
2021/04/11 11:25:14;;;;;;;13.43;12.13;;;;;;;9.24;69.29;100464.91;5001530;28;20476;-71
2021/04/11 11:27:45;;;;;;;15.40;12.57;;;;;;;9.72;67.54;100462.78;5018725;28;20441;-73
2021/04/11 11:31:02;;;;;;;13.50;12.10;;;;;;;9.18;68.38;100467.47;5018807;28;20418;-74
2021/04/11 11:33:47;;;;;;;12.80;11.50;;;;;;;8.97;68.93;100481.97;4993783;28;20418;-72
2021/04/11 11:36:33;;;;;;;12.47;11.17;;;;;;;9.72;65.95;100481.00;5018531;28;20849;-73
2021/04/11 11:39:13;;;;;;;11.43;10.33;;;;;;;9.20;67.97;100491.75;5017938;28;20414;-73
2021/04/11 11:41:47;;;;;;;12.10;10.90;;;;;;;9.17;67.46;100484.78;5017764;28;20413;-71
2021/04/11 11:44:20;;;;;;;11.20;9.90;;;;;;;9.08;68.13;100492.50;5018038;28;20448;-76
2021/04/11 11:46:53;;;;;;;11.27;10.17;;;;;;;9.30;68.19;100488.41;5018739;28;20425;-75
2021/04/11 11:49:24;;;;;;;12.70;10.40;;;;;;;9.29;67.87;100488.38;5018515;28;20733;-74
2021/04/11 11:52:00;;;;;;;11.00;9.97;;;;;;;8.67;68.77;100514.50;5017518;28;20691;-75
2021/04/11 11:54:31;;;;;;;10.37;9.40;;;;;;;8.66;68.64;100512.75;5017777;28;20469;-75
2021/04/11 11:57:19;;;;;;;11.40;10.30;;;;;;;9.23;67.02;100510.00;5017818;28;20479;-78
2021/04/11 12:00:05;;;;;;;10.23;9.20;;;;;;;9.23;66.71;100507.41;5017392;28;20437;-73
2021/04/11 12:02:41;;;;;;;9.53;8.37;;;;;;;8.57;67.90;100526.50;5018290;28;20447;-74
2021/04/11 12:05:23;;;;;;;8.80;8.00;;;;;;;8.79;67.56;100536.31;5017067;28;20437;-74
2021/04/11 12:08:07;;;;;;;8.50;7.73;;;;;;;9.03;66.07;100544.44;5017697;28;20430;-74
2021/04/11 12:10:44;;;;;;;9.37;8.47;;;;;;;8.54;67.51;100561.97;5017091;28;20457;-72
2021/04/11 12:13:30;;;;;;;8.23;7.43;;;;;;;8.37;67.99;100567.72;5022881;28;20426;-73
2021/04/11 12:16:00;;;;;;;8.03;7.33;;;;;;;8.58;67.61;100554.22;5019214;28;20483;-73
2021/04/11 12:18:30;;;;;;;7.60;6.80;;;;;;;8.42;67.54;100554.81;5017467;28;20432;-72
2021/04/11 12:21:24;;;;;;;7.07;6.47;;;;;;;8.56;66.63;100560.25;5000536;28;20441;-72
2021/04/11 12:24:17;;;;;;;7.90;7.10;;;;;;;8.38;67.24;100553.88;5017074;28;20497;-74
2021/04/11 12:26:55;;;;;;;7.43;6.73;;;;;;;8.16;68.04;100569.97;5018086;28;20389;-72